sensor_id;sensor_type;location;lat;lon;timestamp;P1;durP1;ratioP1;P2;durP2;ratioP2
49678;SDS011;35570;48.218;16.326;2023-07-13T00:02:06;3.45;;;1.40;;
49678;SDS011;35570;48.218;16.326;2023-07-13T00:04:32;3.53;;;1.45;;
49678;SDS011;35570;48.218;16.326;2023-07-13T00:06:57;2.70;;;1.42;;
49678;SDS011;35570;48.218;16.326;2023-07-13T00:09:23;2.13;;;1.30;;
49678;SDS011;35570;48.218;16.326;2023-07-13T00:11:53;2.38;;;1.50;;
49678;SDS011;35570;48.218;16.326;2023-07-13T00:14:20;2.95;;;1.40;;
49678;SDS011;35570;48.218;16.326;2023-07-13T00:16:46;2.95;;;1.38;;
49678;SDS011;35570;48.218;16.326;2023-07-13T00:19:13;3.05;;;1.40;;
49678;SDS011;35570;48.218;16.326;2023-07-13T00:21:39;1.80;;;1.35;;
49678;SDS011;35570;48.218;16.326;2023-07-13T00:24:06;2.45;;;1.10;;
49678;SDS011;35570;48.218;16.326;2023-07-13T00:26:32;3.20;;;1.27;;
49678;SDS011;35570;48.218;16.326;2023-07-13T00:28:58;2.83;;;1.52;;
49678;SDS011;35570;48.218;16.326;2023-07-13T00:31:24;2.45;;;1.30;;
49678;SDS011;35570;48.218;16.326;2023-07-13T00:33:50;4.05;;;1.30;;
49678;SDS011;35570;48.218;16.326;2023-07-13T00:36:16;2.40;;;1.20;;
49678;SDS011;35570;48.218;16.326;2023-07-13T00:38:42;2.40;;;1.10;;
49678;SDS011;35570;48.218;16.326;2023-07-13T00:41:08;1.92;;;1.00;;
49678;SDS011;35570;48.218;16.326;2023-07-13T00:43:33;1.98;;;1.08;;
49678;SDS011;35570;48.218;16.326;2023-07-13T00:48:49;1.98;;;1.20;;
49678;SDS011;35570;48.218;16.326;2023-07-13T00:51:20;2.03;;;1.20;;
49678;SDS011;35570;48.218;16.326;2023-07-13T00:53:50;1.60;;;1.10;;
49678;SDS011;35570;48.218;16.326;2023-07-13T00:56:18;1.45;;;1.05;;
49678;SDS011;35570;48.218;16.326;2023-07-13T00:58:44;2.15;;;1.40;;
49678;SDS011;35570;48.218;16.326;2023-07-13T01:01:10;2.20;;;0.85;;
49678;SDS011;35570;48.218;16.326;2023-07-13T01:03:37;2.58;;;0.93;;
49678;SDS011;35570;48.218;16.326;2023-07-13T01:06:05;1.00;;;0.75;;
49678;SDS011;35570;48.218;16.326;2023-07-13T01:08:31;2.03;;;1.10;;
49678;SDS011;35570;48.218;16.326;2023-07-13T01:10:58;3.90;;;1.10;;
49678;SDS011;35570;48.218;16.326;2023-07-13T01:13:24;1.70;;;1.20;;
49678;SDS011;35570;48.218;16.326;2023-07-13T01:15:51;2.13;;;1.00;;
49678;SDS011;35570;48.218;16.326;2023-07-13T01:18:18;1.63;;;0.80;;
49678;SDS011;35570;48.218;16.326;2023-07-13T01:21:11;2.53;;;0.98;;
49678;SDS011;35570;48.218;16.326;2023-07-13T01:23:35;1.15;;;0.90;;
49678;SDS011;35570;48.218;16.326;2023-07-13T01:26:01;2.03;;;1.25;;
49678;SDS011;35570;48.218;16.326;2023-07-13T01:28:28;1.20;;;0.80;;
49678;SDS011;35570;48.218;16.326;2023-07-13T01:30:54;1.63;;;1.17;;
49678;SDS011;35570;48.218;16.326;2023-07-13T01:33:22;1.88;;;0.90;;
49678;SDS011;35570;48.218;16.326;2023-07-13T01:35:48;3.25;;;0.80;;
49678;SDS011;35570;48.218;16.326;2023-07-13T01:38:14;2.22;;;0.90;;
49678;SDS011;35570;48.218;16.326;2023-07-13T01:40:42;3.75;;;1.02;;
49678;SDS011;35570;48.218;16.326;2023-07-13T01:43:08;1.55;;;0.77;;
49678;SDS011;35570;48.218;16.326;2023-07-13T01:45:34;1.90;;;0.88;;
49678;SDS011;35570;48.218;16.326;2023-07-13T01:48:00;1.35;;;0.70;;
49678;SDS011;35570;48.218;16.326;2023-07-13T01:50:26;1.20;;;0.70;;
49678;SDS011;35570;48.218;16.326;2023-07-13T01:52:51;2.05;;;1.13;;
49678;SDS011;35570;48.218;16.326;2023-07-13T01:55:18;1.35;;;0.77;;
49678;SDS011;35570;48.218;16.326;2023-07-13T01:57:44;1.50;;;0.90;;
49678;SDS011;35570;48.218;16.326;2023-07-13T02:00:10;1.63;;;0.80;;
49678;SDS011;35570;48.218;16.326;2023-07-13T02:02:36;1.80;;;0.90;;
49678;SDS011;35570;48.218;16.326;2023-07-13T02:05:01;1.60;;;0.90;;
49678;SDS011;35570;48.218;16.326;2023-07-13T02:07:27;1.45;;;1.17;;
49678;SDS011;35570;48.218;16.326;2023-07-13T02:09:53;2.53;;;1.20;;
49678;SDS011;35570;48.218;16.326;2023-07-13T02:12:19;2.90;;;1.38;;
49678;SDS011;35570;48.218;16.326;2023-07-13T02:14:44;3.92;;;0.80;;
49678;SDS011;35570;48.218;16.326;2023-07-13T02:17:10;3.40;;;1.23;;
49678;SDS011;35570;48.218;16.326;2023-07-13T02:19:36;2.85;;;1.20;;
49678;SDS011;35570;48.218;16.326;2023-07-13T02:22:02;2.08;;;1.20;;
49678;SDS011;35570;48.218;16.326;2023-07-13T02:24:27;3.55;;;1.20;;
49678;SDS011;35570;48.218;16.326;2023-07-13T02:26:53;2.25;;;1.40;;
49678;SDS011;35570;48.218;16.326;2023-07-13T02:29:19;2.65;;;1.48;;
49678;SDS011;35570;48.218;16.326;2023-07-13T02:31:44;3.03;;;0.98;;
49678;SDS011;35570;48.218;16.326;2023-07-13T02:34:10;2.05;;;1.02;;
49678;SDS011;35570;48.218;16.326;2023-07-13T02:36:36;2.15;;;1.00;;
49678;SDS011;35570;48.218;16.326;2023-07-13T02:39:02;2.00;;;1.38;;
49678;SDS011;35570;48.218;16.326;2023-07-13T02:41:29;2.50;;;1.58;;
49678;SDS011;35570;48.218;16.326;2023-07-13T02:43:54;3.30;;;1.60;;
49678;SDS011;35570;48.218;16.326;2023-07-13T02:46:27;2.83;;;1.48;;
49678;SDS011;35570;48.218;16.326;2023-07-13T02:48:54;2.40;;;1.38;;
49678;SDS011;35570;48.218;16.326;2023-07-13T02:51:19;2.53;;;1.30;;
49678;SDS011;35570;48.218;16.326;2023-07-13T02:53:45;2.90;;;1.40;;
49678;SDS011;35570;48.218;16.326;2023-07-13T02:56:10;2.45;;;1.58;;
49678;SDS011;35570;48.218;16.326;2023-07-13T02:58:36;2.10;;;1.40;;
49678;SDS011;35570;48.218;16.326;2023-07-13T03:01:06;2.75;;;1.50;;
49678;SDS011;35570;48.218;16.326;2023-07-13T03:03:33;2.78;;;1.23;;
49678;SDS011;35570;48.218;16.326;2023-07-13T03:06:00;1.95;;;1.38;;
49678;SDS011;35570;48.218;16.326;2023-07-13T03:08:28;1.48;;;1.30;;
49678;SDS011;35570;48.218;16.326;2023-07-13T03:11:00;3.13;;;1.60;;
49678;SDS011;35570;48.218;16.326;2023-07-13T03:13:28;3.08;;;1.45;;
49678;SDS011;35570;48.218;16.326;2023-07-13T03:15:53;2.08;;;1.17;;
49678;SDS011;35570;48.218;16.326;2023-07-13T03:18:19;4.53;;;1.20;;
49678;SDS011;35570;48.218;16.326;2023-07-13T03:20:45;2.10;;;1.10;;
49678;SDS011;35570;48.218;16.326;2023-07-13T03:23:10;2.58;;;1.02;;
49678;SDS011;35570;48.218;16.326;2023-07-13T03:25:36;1.60;;;1.00;;
49678;SDS011;35570;48.218;16.326;2023-07-13T03:28:01;3.00;;;1.17;;
49678;SDS011;35570;48.218;16.326;2023-07-13T03:30:27;2.42;;;1.10;;
49678;SDS011;35570;48.218;16.326;2023-07-13T03:32:53;2.83;;;1.20;;
49678;SDS011;35570;48.218;16.326;2023-07-13T03:35:18;2.08;;;1.25;;
49678;SDS011;35570;48.218;16.326;2023-07-13T03:37:44;4.32;;;1.30;;
49678;SDS011;35570;48.218;16.326;2023-07-13T03:40:10;2.55;;;1.40;;
49678;SDS011;35570;48.218;16.326;2023-07-13T03:42:37;1.92;;;1.00;;
49678;SDS011;35570;48.218;16.326;2023-07-13T03:45:03;2.20;;;1.20;;
49678;SDS011;35570;48.218;16.326;2023-07-13T03:47:29;1.83;;;1.02;;
49678;SDS011;35570;48.218;16.326;2023-07-13T03:49:54;3.25;;;1.25;;
49678;SDS011;35570;48.218;16.326;2023-07-13T03:52:20;2.22;;;1.15;;
49678;SDS011;35570;48.218;16.326;2023-07-13T03:54:46;1.52;;;1.08;;
49678;SDS011;35570;48.218;16.326;2023-07-13T03:57:11;2.10;;;1.35;;
49678;SDS011;35570;48.218;16.326;2023-07-13T03:59:37;3.55;;;1.38;;
49678;SDS011;35570;48.218;16.326;2023-07-13T04:02:02;3.30;;;1.10;;
49678;SDS011;35570;48.218;16.326;2023-07-13T04:04:30;2.25;;;1.05;;
49678;SDS011;35570;48.218;16.326;2023-07-13T04:06:56;1.75;;;1.02;;
49678;SDS011;35570;48.218;16.326;2023-07-13T04:09:23;2.17;;;1.20;;
49678;SDS011;35570;48.218;16.326;2023-07-13T04:11:49;3.08;;;1.08;;
49678;SDS011;35570;48.218;16.326;2023-07-13T04:14:15;1.70;;;1.20;;
49678;SDS011;35570;48.218;16.326;2023-07-13T04:16:41;1.90;;;1.00;;
49678;SDS011;35570;48.218;16.326;2023-07-13T04:19:08;2.70;;;1.10;;
49678;SDS011;35570;48.218;16.326;2023-07-13T04:21:35;1.80;;;1.10;;
49678;SDS011;35570;48.218;16.326;2023-07-13T04:24:02;2.90;;;1.45;;
49678;SDS011;35570;48.218;16.326;2023-07-13T04:26:28;3.03;;;1.20;;
49678;SDS011;35570;48.218;16.326;2023-07-13T04:28:55;2.30;;;1.30;;
49678;SDS011;35570;48.218;16.326;2023-07-13T04:31:21;1.98;;;1.20;;
49678;SDS011;35570;48.218;16.326;2023-07-13T04:33:47;4.32;;;2.00;;
49678;SDS011;35570;48.218;16.326;2023-07-13T04:36:14;3.20;;;1.80;;
49678;SDS011;35570;48.218;16.326;2023-07-13T04:38:40;4.28;;;1.83;;
49678;SDS011;35570;48.218;16.326;2023-07-13T04:41:06;2.05;;;1.50;;
49678;SDS011;35570;48.218;16.326;2023-07-13T04:43:33;3.42;;;1.70;;
49678;SDS011;35570;48.218;16.326;2023-07-13T04:46:04;2.33;;;1.27;;
49678;SDS011;35570;48.218;16.326;2023-07-13T04:48:31;2.42;;;1.25;;
49678;SDS011;35570;48.218;16.326;2023-07-13T04:50:57;3.72;;;1.50;;
49678;SDS011;35570;48.218;16.326;2023-07-13T04:53:23;3.22;;;1.55;;
49678;SDS011;35570;48.218;16.326;2023-07-13T04:55:50;2.45;;;1.20;;
49678;SDS011;35570;48.218;16.326;2023-07-13T04:58:16;1.73;;;1.38;;
49678;SDS011;35570;48.218;16.326;2023-07-13T05:00:41;3.30;;;1.30;;
49678;SDS011;35570;48.218;16.326;2023-07-13T05:03:07;5.72;;;1.83;;
49678;SDS011;35570;48.218;16.326;2023-07-13T05:05:33;1.98;;;1.17;;
49678;SDS011;35570;48.218;16.326;2023-07-13T05:07:59;1.98;;;1.00;;
49678;SDS011;35570;48.218;16.326;2023-07-13T05:10:24;1.90;;;1.13;;
49678;SDS011;35570;48.218;16.326;2023-07-13T05:12:50;2.90;;;1.27;;
49678;SDS011;35570;48.218;16.326;2023-07-13T05:15:16;2.05;;;0.98;;
49678;SDS011;35570;48.218;16.326;2023-07-13T05:17:46;1.52;;;1.00;;
49678;SDS011;35570;48.218;16.326;2023-07-13T05:20:12;4.10;;;1.02;;
49678;SDS011;35570;48.218;16.326;2023-07-13T05:22:38;2.65;;;0.90;;
49678;SDS011;35570;48.218;16.326;2023-07-13T05:25:04;1.67;;;0.90;;
49678;SDS011;35570;48.218;16.326;2023-07-13T05:27:31;2.65;;;1.10;;
49678;SDS011;35570;48.218;16.326;2023-07-13T05:29:57;1.50;;;0.80;;
49678;SDS011;35570;48.218;16.326;2023-07-13T05:32:23;2.25;;;1.10;;
49678;SDS011;35570;48.218;16.326;2023-07-13T05:34:48;1.10;;;0.70;;
49678;SDS011;35570;48.218;16.326;2023-07-13T05:37:14;1.92;;;0.90;;
49678;SDS011;35570;48.218;16.326;2023-07-13T05:39:39;1.30;;;0.75;;
49678;SDS011;35570;48.218;16.326;2023-07-13T05:42:05;2.35;;;0.80;;
49678;SDS011;35570;48.218;16.326;2023-07-13T05:44:31;1.10;;;0.80;;
49678;SDS011;35570;48.218;16.326;2023-07-13T05:46:57;4.63;;;1.60;;
49678;SDS011;35570;48.218;16.326;2023-07-13T05:49:22;2.03;;;1.30;;
49678;SDS011;35570;48.218;16.326;2023-07-13T05:51:48;2.03;;;1.23;;
49678;SDS011;35570;48.218;16.326;2023-07-13T05:54:14;2.22;;;1.25;;
49678;SDS011;35570;48.218;16.326;2023-07-13T05:56:40;4.75;;;2.80;;
49678;SDS011;35570;48.218;16.326;2023-07-13T05:59:05;3.47;;;1.48;;
49678;SDS011;35570;48.218;16.326;2023-07-13T06:01:31;3.63;;;1.55;;
49678;SDS011;35570;48.218;16.326;2023-07-13T06:03:57;2.17;;;0.98;;
49678;SDS011;35570;48.218;16.326;2023-07-13T06:06:23;3.40;;;1.40;;
49678;SDS011;35570;48.218;16.326;2023-07-13T06:08:48;3.05;;;1.13;;
49678;SDS011;35570;48.218;16.326;2023-07-13T06:11:15;1.90;;;1.17;;
49678;SDS011;35570;48.218;16.326;2023-07-13T06:13:43;1.92;;;1.40;;
49678;SDS011;35570;48.218;16.326;2023-07-13T06:16:09;3.75;;;1.15;;
49678;SDS011;35570;48.218;16.326;2023-07-13T06:18:36;2.83;;;1.40;;
49678;SDS011;35570;48.218;16.326;2023-07-13T06:21:07;2.03;;;1.60;;
49678;SDS011;35570;48.218;16.326;2023-07-13T06:23:36;2.15;;;1.38;;
49678;SDS011;35570;48.218;16.326;2023-07-13T06:26:02;3.45;;;2.92;;
49678;SDS011;35570;48.218;16.326;2023-07-13T06:28:29;4.43;;;3.20;;
49678;SDS011;35570;48.218;16.326;2023-07-13T06:30:56;4.40;;;3.55;;
49678;SDS011;35570;48.218;16.326;2023-07-13T06:33:23;5.45;;;4.95;;
49678;SDS011;35570;48.218;16.326;2023-07-13T06:35:48;4.80;;;3.38;;
49678;SDS011;35570;48.218;16.326;2023-07-13T06:38:14;4.47;;;2.65;;
49678;SDS011;35570;48.218;16.326;2023-07-13T06:40:40;4.85;;;3.15;;
49678;SDS011;35570;48.218;16.326;2023-07-13T06:43:06;6.15;;;3.45;;
49678;SDS011;35570;48.218;16.326;2023-07-13T06:45:32;3.25;;;2.95;;
49678;SDS011;35570;48.218;16.326;2023-07-13T06:48:05;4.55;;;4.07;;
49678;SDS011;35570;48.218;16.326;2023-07-13T06:50:31;3.40;;;2.83;;
49678;SDS011;35570;48.218;16.326;2023-07-13T06:52:57;7.38;;;5.28;;
49678;SDS011;35570;48.218;16.326;2023-07-13T06:55:24;5.30;;;3.65;;
49678;SDS011;35570;48.218;16.326;2023-07-13T06:57:50;4.78;;;3.70;;
49678;SDS011;35570;48.218;16.326;2023-07-13T07:00:16;4.35;;;3.53;;
49678;SDS011;35570;48.218;16.326;2023-07-13T07:02:42;8.52;;;7.45;;
49678;SDS011;35570;48.218;16.326;2023-07-13T07:05:08;2.75;;;2.30;;
49678;SDS011;35570;48.218;16.326;2023-07-13T07:07:33;9.15;;;8.25;;
49678;SDS011;35570;48.218;16.326;2023-07-13T07:09:59;9.98;;;7.15;;
49678;SDS011;35570;48.218;16.326;2023-07-13T07:12:25;3.08;;;1.77;;
49678;SDS011;35570;48.218;16.326;2023-07-13T07:14:50;2.22;;;1.25;;
49678;SDS011;35570;48.218;16.326;2023-07-13T07:17:16;2.30;;;1.15;;
49678;SDS011;35570;48.218;16.326;2023-07-13T07:19:42;1.92;;;1.10;;
49678;SDS011;35570;48.218;16.326;2023-07-13T07:22:07;2.08;;;1.05;;
49678;SDS011;35570;48.218;16.326;2023-07-13T07:24:33;2.35;;;1.30;;
49678;SDS011;35570;48.218;16.326;2023-07-13T07:26:59;2.75;;;1.70;;
49678;SDS011;35570;48.218;16.326;2023-07-13T07:29:24;2.22;;;1.38;;
49678;SDS011;35570;48.218;16.326;2023-07-13T07:31:52;2.70;;;1.20;;
49678;SDS011;35570;48.218;16.326;2023-07-13T07:34:18;6.72;;;4.32;;
49678;SDS011;35570;48.218;16.326;2023-07-13T07:36:44;2.28;;;1.17;;
49678;SDS011;35570;48.218;16.326;2023-07-13T07:39:10;1.35;;;1.02;;
49678;SDS011;35570;48.218;16.326;2023-07-13T07:41:36;4.50;;;1.48;;
49678;SDS011;35570;48.218;16.326;2023-07-13T07:44:03;2.55;;;1.00;;
49678;SDS011;35570;48.218;16.326;2023-07-13T07:46:34;2.70;;;1.60;;
49678;SDS011;35570;48.218;16.326;2023-07-13T07:49:00;1.77;;;1.20;;
49678;SDS011;35570;48.218;16.326;2023-07-13T07:51:26;4.38;;;3.60;;
49678;SDS011;35570;48.218;16.326;2023-07-13T07:53:52;6.32;;;5.35;;
49678;SDS011;35570;48.218;16.326;2023-07-13T07:56:17;5.28;;;4.35;;
49678;SDS011;35570;48.218;16.326;2023-07-13T07:58:43;1.58;;;1.17;;
49678;SDS011;35570;48.218;16.326;2023-07-13T08:01:09;4.32;;;3.47;;
49678;SDS011;35570;48.218;16.326;2023-07-13T08:03:35;3.47;;;2.90;;
49678;SDS011;35570;48.218;16.326;2023-07-13T08:06:01;2.85;;;2.22;;
49678;SDS011;35570;48.218;16.326;2023-07-13T08:08:26;11.68;;;7.15;;
49678;SDS011;35570;48.218;16.326;2023-07-13T08:10:52;3.80;;;2.47;;
49678;SDS011;35570;48.218;16.326;2023-07-13T08:13:18;7.85;;;5.45;;
49678;SDS011;35570;48.218;16.326;2023-07-13T08:15:44;4.97;;;3.58;;
49678;SDS011;35570;48.218;16.326;2023-07-13T08:18:10;4.57;;;2.83;;
49678;SDS011;35570;48.218;16.326;2023-07-13T08:20:38;6.63;;;5.93;;
49678;SDS011;35570;48.218;16.326;2023-07-13T08:23:04;8.07;;;5.47;;
49678;SDS011;35570;48.218;16.326;2023-07-13T08:25:30;6.97;;;4.97;;
49678;SDS011;35570;48.218;16.326;2023-07-13T08:27:56;9.98;;;9.07;;
49678;SDS011;35570;48.218;16.326;2023-07-13T08:30:21;4.38;;;1.70;;
49678;SDS011;35570;48.218;16.326;2023-07-13T08:32:47;3.30;;;3.00;;
49678;SDS011;35570;48.218;16.326;2023-07-13T08:35:13;3.95;;;2.78;;
49678;SDS011;35570;48.218;16.326;2023-07-13T08:37:40;4.38;;;3.90;;
49678;SDS011;35570;48.218;16.326;2023-07-13T08:40:07;4.03;;;1.90;;
49678;SDS011;35570;48.218;16.326;2023-07-13T08:48:28;3.55;;;3.00;;
49678;SDS011;35570;48.218;16.326;2023-07-13T08:54:05;2.88;;;2.63;;
49678;SDS011;35570;48.218;16.326;2023-07-13T08:56:54;6.53;;;5.53;;
49678;SDS011;35570;48.218;16.326;2023-07-13T08:59:24;4.97;;;3.78;;
49678;SDS011;35570;48.218;16.326;2023-07-13T09:04:35;6.53;;;4.13;;
49678;SDS011;35570;48.218;16.326;2023-07-13T09:12:45;4.90;;;3.25;;
49678;SDS011;35570;48.218;16.326;2023-07-13T09:15:24;6.32;;;5.55;;
49678;SDS011;35570;48.218;16.326;2023-07-13T09:17:55;6.07;;;4.20;;
49678;SDS011;35570;48.218;16.326;2023-07-13T09:20:27;5.15;;;4.43;;
49678;SDS011;35570;48.218;16.326;2023-07-13T09:23:04;6.30;;;4.25;;
49678;SDS011;35570;48.218;16.326;2023-07-13T09:25:32;6.18;;;5.13;;
49678;SDS011;35570;48.218;16.326;2023-07-13T09:28:01;8.20;;;5.28;;
49678;SDS011;35570;48.218;16.326;2023-07-13T09:33:23;3.85;;;2.92;;
49678;SDS011;35570;48.218;16.326;2023-07-13T09:35:49;4.00;;;2.50;;
49678;SDS011;35570;48.218;16.326;2023-07-13T09:38:15;4.47;;;2.88;;
49678;SDS011;35570;48.218;16.326;2023-07-13T09:43:28;3.17;;;2.50;;
49678;SDS011;35570;48.218;16.326;2023-07-13T09:45:55;6.97;;;4.60;;
49678;SDS011;35570;48.218;16.326;2023-07-13T09:48:21;6.15;;;3.13;;
49678;SDS011;35570;48.218;16.326;2023-07-13T09:50:47;2.90;;;2.10;;
49678;SDS011;35570;48.218;16.326;2023-07-13T09:53:17;3.85;;;2.10;;
49678;SDS011;35570;48.218;16.326;2023-07-13T09:55:45;2.90;;;1.92;;
49678;SDS011;35570;48.218;16.326;2023-07-13T09:58:13;6.63;;;6.03;;
49678;SDS011;35570;48.218;16.326;2023-07-13T10:00:42;5.47;;;4.32;;
49678;SDS011;35570;48.218;16.326;2023-07-13T10:06:20;3.95;;;3.10;;
49678;SDS011;35570;48.218;16.326;2023-07-13T10:08:51;7.78;;;6.13;;
49678;SDS011;35570;48.218;16.326;2023-07-13T10:14:15;12.43;;;3.35;;
49678;SDS011;35570;48.218;16.326;2023-07-13T10:16:48;3.92;;;3.33;;
49678;SDS011;35570;48.218;16.326;2023-07-13T10:19:19;3.65;;;2.70;;
49678;SDS011;35570;48.218;16.326;2023-07-13T10:21:58;3.85;;;2.40;;
49678;SDS011;35570;48.218;16.326;2023-07-13T10:24:26;3.85;;;2.88;;
49678;SDS011;35570;48.218;16.326;2023-07-13T10:29:36;4.80;;;2.13;;
49678;SDS011;35570;48.218;16.326;2023-07-13T10:32:11;3.45;;;1.92;;
49678;SDS011;35570;48.218;16.326;2023-07-13T10:34:37;6.00;;;2.97;;
49678;SDS011;35570;48.218;16.326;2023-07-13T10:37:05;4.50;;;3.13;;
49678;SDS011;35570;48.218;16.326;2023-07-13T10:39:39;3.60;;;3.30;;
49678;SDS011;35570;48.218;16.326;2023-07-13T10:42:06;6.28;;;5.18;;
49678;SDS011;35570;48.218;16.326;2023-07-13T10:44:38;6.75;;;5.50;;
49678;SDS011;35570;48.218;16.326;2023-07-13T10:47:06;7.97;;;6.07;;
49678;SDS011;35570;48.218;16.326;2023-07-13T10:49:36;5.88;;;5.15;;
49678;SDS011;35570;48.218;16.326;2023-07-13T10:52:03;4.72;;;3.97;;
49678;SDS011;35570;48.218;16.326;2023-07-13T10:59:46;9.75;;;7.68;;
49678;SDS011;35570;48.218;16.326;2023-07-13T11:02:28;6.05;;;4.70;;
49678;SDS011;35570;48.218;16.326;2023-07-13T11:04:54;5.32;;;4.40;;
49678;SDS011;35570;48.218;16.326;2023-07-13T11:07:23;5.00;;;2.30;;
49678;SDS011;35570;48.218;16.326;2023-07-13T11:09:56;4.75;;;2.25;;
49678;SDS011;35570;48.218;16.326;2023-07-13T11:13:27;4.57;;;3.92;;
49678;SDS011;35570;48.218;16.326;2023-07-13T11:18:20;7.50;;;5.22;;
49678;SDS011;35570;48.218;16.326;2023-07-13T11:20:48;4.15;;;3.17;;
49678;SDS011;35570;48.218;16.326;2023-07-13T11:25:43;5.32;;;4.40;;
49678;SDS011;35570;48.218;16.326;2023-07-13T11:30:59;6.57;;;5.88;;
49678;SDS011;35570;48.218;16.326;2023-07-13T11:33:28;4.47;;;2.35;;
49678;SDS011;35570;48.218;16.326;2023-07-13T11:36:04;5.95;;;4.45;;
49678;SDS011;35570;48.218;16.326;2023-07-13T11:39:09;3.97;;;3.25;;
49678;SDS011;35570;48.218;16.326;2023-07-13T11:41:28;3.63;;;3.22;;
49678;SDS011;35570;48.218;16.326;2023-07-13T11:46:53;6.55;;;3.47;;
49678;SDS011;35570;48.218;16.326;2023-07-13T11:49:21;4.35;;;3.38;;
49678;SDS011;35570;48.218;16.326;2023-07-13T11:51:48;3.92;;;3.45;;
49678;SDS011;35570;48.218;16.326;2023-07-13T11:54:33;3.00;;;1.63;;
49678;SDS011;35570;48.218;16.326;2023-07-13T11:57:21;5.50;;;1.80;;
49678;SDS011;35570;48.218;16.326;2023-07-13T12:00:00;1.50;;;1.30;;
49678;SDS011;35570;48.218;16.326;2023-07-13T12:02:30;3.10;;;1.80;;
49678;SDS011;35570;48.218;16.326;2023-07-13T12:04:59;1.90;;;1.40;;
49678;SDS011;35570;48.218;16.326;2023-07-13T12:07:28;2.97;;;1.70;;
49678;SDS011;35570;48.218;16.326;2023-07-13T12:10:00;2.58;;;1.40;;
49678;SDS011;35570;48.218;16.326;2023-07-13T12:12:28;4.07;;;3.50;;
49678;SDS011;35570;48.218;16.326;2023-07-13T12:14:55;4.45;;;2.92;;
49678;SDS011;35570;48.218;16.326;2023-07-13T12:17:22;6.53;;;2.42;;
49678;SDS011;35570;48.218;16.326;2023-07-13T12:19:50;6.63;;;4.05;;
49678;SDS011;35570;48.218;16.326;2023-07-13T12:22:17;5.85;;;2.70;;
49678;SDS011;35570;48.218;16.326;2023-07-13T12:24:45;5.00;;;2.83;;
49678;SDS011;35570;48.218;16.326;2023-07-13T12:30:04;3.28;;;2.53;;
49678;SDS011;35570;48.218;16.326;2023-07-13T12:33:19;2.65;;;2.38;;
49678;SDS011;35570;48.218;16.326;2023-07-13T12:35:46;5.50;;;2.50;;
49678;SDS011;35570;48.218;16.326;2023-07-13T12:38:14;3.63;;;1.40;;
49678;SDS011;35570;48.218;16.326;2023-07-13T12:40:40;6.40;;;1.83;;
49678;SDS011;35570;48.218;16.326;2023-07-13T12:43:10;3.83;;;1.90;;
49678;SDS011;35570;48.218;16.326;2023-07-13T12:45:37;3.20;;;1.55;;
49678;SDS011;35570;48.218;16.326;2023-07-13T12:48:13;5.13;;;3.92;;
49678;SDS011;35570;48.218;16.326;2023-07-13T12:50:41;6.55;;;2.63;;
49678;SDS011;35570;48.218;16.326;2023-07-13T12:53:14;2.47;;;1.60;;
49678;SDS011;35570;48.218;16.326;2023-07-13T12:55:53;2.92;;;1.90;;
49678;SDS011;35570;48.218;16.326;2023-07-13T13:01:05;3.05;;;1.83;;
49678;SDS011;35570;48.218;16.326;2023-07-13T13:03:35;3.03;;;1.52;;
49678;SDS011;35570;48.218;16.326;2023-07-13T13:06:27;4.88;;;3.47;;
49678;SDS011;35570;48.218;16.326;2023-07-13T13:08:54;6.53;;;5.47;;
49678;SDS011;35570;48.218;16.326;2023-07-13T13:11:22;6.68;;;6.07;;
49678;SDS011;35570;48.218;16.326;2023-07-13T13:13:48;4.32;;;2.42;;
49678;SDS011;35570;48.218;16.326;2023-07-13T13:16:32;3.17;;;1.90;;
49678;SDS011;35570;48.218;16.326;2023-07-13T13:19:45;4.55;;;3.50;;
49678;SDS011;35570;48.218;16.326;2023-07-13T13:21:50;5.60;;;2.75;;
49678;SDS011;35570;48.218;16.326;2023-07-13T13:24:18;4.47;;;1.70;;
49678;SDS011;35570;48.218;16.326;2023-07-13T13:26:50;4.13;;;2.08;;
49678;SDS011;35570;48.218;16.326;2023-07-13T13:29:17;3.45;;;1.77;;
49678;SDS011;35570;48.218;16.326;2023-07-13T13:31:46;3.40;;;1.42;;
49678;SDS011;35570;48.218;16.326;2023-07-13T13:34:15;2.75;;;1.60;;
49678;SDS011;35570;48.218;16.326;2023-07-13T13:36:43;3.17;;;1.60;;
49678;SDS011;35570;48.218;16.326;2023-07-13T13:39:55;2.92;;;1.65;;
49678;SDS011;35570;48.218;16.326;2023-07-13T13:41:59;3.50;;;1.50;;
49678;SDS011;35570;48.218;16.326;2023-07-13T13:44:25;1.95;;;1.52;;
49678;SDS011;35570;48.218;16.326;2023-07-13T13:46:51;3.67;;;1.27;;
49678;SDS011;35570;48.218;16.326;2023-07-13T13:49:20;2.97;;;1.33;;
49678;SDS011;35570;48.218;16.326;2023-07-13T13:51:48;3.72;;;1.40;;
49678;SDS011;35570;48.218;16.326;2023-07-13T13:54:15;3.42;;;1.70;;
49678;SDS011;35570;48.218;16.326;2023-07-13T13:56:45;4.63;;;1.90;;
49678;SDS011;35570;48.218;16.326;2023-07-13T13:59:12;3.15;;;1.23;;
49678;SDS011;35570;48.218;16.326;2023-07-13T14:01:39;2.10;;;1.40;;
49678;SDS011;35570;48.218;16.326;2023-07-13T14:04:14;3.58;;;1.40;;
49678;SDS011;35570;48.218;16.326;2023-07-13T14:06:45;3.30;;;1.60;;
49678;SDS011;35570;48.218;16.326;2023-07-13T14:09:12;3.67;;;1.50;;
49678;SDS011;35570;48.218;16.326;2023-07-13T14:11:39;1.40;;;1.30;;
49678;SDS011;35570;48.218;16.326;2023-07-13T14:14:15;3.83;;;1.50;;
49678;SDS011;35570;48.218;16.326;2023-07-13T14:16:45;2.45;;;1.48;;
49678;SDS011;35570;48.218;16.326;2023-07-13T14:19:18;2.27;;;1.63;;
49678;SDS011;35570;48.218;16.326;2023-07-13T14:21:44;3.90;;;1.65;;
49678;SDS011;35570;48.218;16.326;2023-07-13T14:24:09;3.47;;;1.40;;
49678;SDS011;35570;48.218;16.326;2023-07-13T14:26:36;5.00;;;1.70;;
49678;SDS011;35570;48.218;16.326;2023-07-13T14:29:05;3.05;;;1.48;;
49678;SDS011;35570;48.218;16.326;2023-07-13T14:31:39;3.33;;;1.70;;
49678;SDS011;35570;48.218;16.326;2023-07-13T14:34:05;5.75;;;1.80;;
49678;SDS011;35570;48.218;16.326;2023-07-13T14:39:01;3.63;;;1.90;;
49678;SDS011;35570;48.218;16.326;2023-07-13T14:41:35;4.38;;;1.52;;
49678;SDS011;35570;48.218;16.326;2023-07-13T14:44:01;3.30;;;1.65;;
49678;SDS011;35570;48.218;16.326;2023-07-13T14:46:31;1.98;;;1.40;;
49678;SDS011;35570;48.218;16.326;2023-07-13T14:49:01;3.28;;;1.48;;
49678;SDS011;35570;48.218;16.326;2023-07-13T14:51:29;4.65;;;1.88;;
49678;SDS011;35570;48.218;16.326;2023-07-13T14:53:55;3.97;;;1.60;;
49678;SDS011;35570;48.218;16.326;2023-07-13T14:56:21;2.58;;;1.55;;
49678;SDS011;35570;48.218;16.326;2023-07-13T14:58:47;3.85;;;1.83;;
49678;SDS011;35570;48.218;16.326;2023-07-13T15:01:13;4.97;;;2.03;;
49678;SDS011;35570;48.218;16.326;2023-07-13T15:03:43;2.15;;;1.70;;
49678;SDS011;35570;48.218;16.326;2023-07-13T15:06:11;4.00;;;2.55;;
49678;SDS011;35570;48.218;16.326;2023-07-13T15:08:38;3.47;;;1.85;;
49678;SDS011;35570;48.218;16.326;2023-07-13T15:11:06;3.10;;;1.65;;
49678;SDS011;35570;48.218;16.326;2023-07-13T15:13:32;3.95;;;1.80;;
49678;SDS011;35570;48.218;16.326;2023-07-13T15:16:00;2.45;;;1.50;;
49678;SDS011;35570;48.218;16.326;2023-07-13T15:18:26;2.58;;;1.65;;
49678;SDS011;35570;48.218;16.326;2023-07-13T15:20:53;1.83;;;1.40;;
49678;SDS011;35570;48.218;16.326;2023-07-13T15:23:21;2.40;;;1.50;;
49678;SDS011;35570;48.218;16.326;2023-07-13T15:25:47;3.67;;;1.73;;
49678;SDS011;35570;48.218;16.326;2023-07-13T15:28:13;4.32;;;1.70;;
49678;SDS011;35570;48.218;16.326;2023-07-13T15:30:41;2.17;;;1.80;;
49678;SDS011;35570;48.218;16.326;2023-07-13T15:33:21;4.75;;;1.80;;
49678;SDS011;35570;48.218;16.326;2023-07-13T15:35:54;3.25;;;1.70;;
49678;SDS011;35570;48.218;16.326;2023-07-13T15:38:29;4.43;;;1.50;;